CheckWX is a tool to help pilots better visualize weather data.  It is not intended as a substitute for an official pre-flight weather briefing.

14:30:04 UTC

KBTR TAF
Baton Rouge Metropolitan, Ryan Field Airport
Baton Rouge, Louisiana, USA
KBTR 151126Z 1512/1612 02005KT P6SM FEW040 FM151500 06008KT P6SM FEW040 BKN250 FM160000 VRB04KT P6SM FEW050 SCT250

Sep-15@
12:00 UTC

Sep-15 @ 12:00 UTC

Sep-15@
15:00 UTC

Sep-15 @ 15:00 UTC

KBTR 151126Z 1512/1612 02005KT P6SM FEW040
Wind
  • 020° at 5 KTS
Cloud Levels
  • Few at 4,000' AGL

Sep-15@
15:00 UTC

Sep-15 @ 15:00 UTC

Sep-16@
00:00 UTC

Sep-16 @ 00:00 UTC

FM151500 06008KT P6SM FEW040 BKN250

From

From Standard forecast or significant change

Wind
  • 060° at 8 KTS
Cloud Levels
  • Few at 4,000' AGL
  • Broken at 25,000' AGL

Sep-16@
00:00 UTC

Sep-16 @ 00:00 UTC

Sep-16@
12:00 UTC

Sep-16 @ 12:00 UTC

FM160000 VRB04KT P6SM FEW050 SCT250

From

From Standard forecast or significant change

Wind
  • Variable at 4 KTS
Cloud Levels
  • Few at 5,000' AGL
  • Scattered at 25,000' AGL